Berlin — 9HA2295 — position and weather

sailwx.info

Track history (hours):
 
Tides and Currents Weather Stations Pressure Air Temp Water Temp Dewpoint Dewpoint Depression Visibility Wind Speed Wind Dir Waves Ship Positions

Berlin

Last reported at 2016-May-03 03:18 UTC. Time now 2016-May-03 06:52 UTC.
Position N 42°45' E 008°57'.

Length 140 m; draft 5.1 m.

Type: Passenger vessel. MMSI: 248277000.

Date/timePositionNaut miles runAvg speedWind from/ knotsBaromVisibWave heightAir tempDewpointWater temp
2016-May-03 03:18N 42°45' E 008°57'18 9.4
2016-May-03 01:23N 42°59' E 009°12'8 9.6
2016-May-03 00:33N 43°05' E 009°20'8 8.1
2016-May-02 23:33N 43°02' E 009°31'9 9.3
2016-May-02 22:32N 42°53' E 009°33'15 0.8
2016-May-02 02:30N 43°06' E 009°22'1211.0
2016-May-02 01:25N 43°09' E 009°07'1011.3
2016-May-02 00:33N 43°12' E 008°54'5911.5
2016-May-01 19:26N 43°34' E 007°39'1010.9
2016-May-01 18:34N 43°37' E 007°27'8 7.5
2016-May-01 17:30N 43°42' E 007°17'0 0.0
2016-May-01 16:30N 43°42' E 007°17'0 0.0
2016-May-01 15:30N 43°42' E 007°17'0 0.0
2016-May-01 14:24N 43°42' E 007°17'0 0.0
2016-May-01 13:30N 43°42' E 007°17'0 0.0
2016-May-01 12:30N 43°42' E 007°17'0 0.0
2016-May-01 11:18N 43°42' E 007°17'0 0.0
2016-May-01 10:24N 43°42' E 007°17'0 0.0
2016-May-01 09:30N 43°42' E 007°17'0 0.0
2016-May-01 08:30N 43°42' E 007°17'0 0.0
2016-May-01 07:24N 43°42' E 007°17'0 0.0
2016-May-01 06:30N 43°42' E 007°17'0 0.0
2016-May-01 05:31N 43°42' E 007°17'6 6.3
2016-May-01 04:33N 43°38' E 007°24'5310.6
2016-Apr-30 23:34N 43°35' E 008°37'1212.1
2016-Apr-30 22:33N 43°34' E 008°54'1212.4
2016-Apr-30 21:33N 43°33' E 009°11'1312.6
2016-Apr-30 20:34N 43°32' E 009°29'1312.7
2016-Apr-30 19:33N 43°31' E 009°46'1212.1
2016-Apr-30 18:33N 43°31' E 010°03'1010.2
2016-Apr-30 17:33N 43°32' E 010°17'1 1.1
2016-Apr-30 16:29N 43°33' E 010°18'0 0.0
2016-Apr-30 15:32N 43°33' E 010°18'0 0.0
2016-Apr-30 14:32N 43°33' E 010°18'0 0.0
2016-Apr-30 13:32N 43°33' E 010°18'0 0.0
2016-Apr-30 12:32N 43°33' E 010°18'0 0.0
2016-Apr-30 11:32N 43°33' E 010°18'0 0.0
2016-Apr-30 10:32N 43°33' E 010°18'0 0.0
2016-Apr-30 09:29N 43°33' E 010°18'0 0.0
2016-Apr-30 08:32N 43°33' E 010°18'0 0.0
2016-Apr-30 07:32N 43°33' E 010°18'0 0.0
2016-Apr-30 06:32N 43°33' E 010°18'0 0.2
2016-Apr-30 05:33N 43°33' E 010°18'5 5.3
2016-Apr-30 04:33N 43°29' E 010°13'9 8.9
2016-Apr-30 03:33N 43°20' E 010°13'8 7.9
2016-Apr-30 02:33N 43°12' E 010°15'8 8.0
2016-Apr-30 01:33N 43°05' E 010°19'6 5.6
2016-Apr-30 00:33N 43°03' E 010°11'7 7.4
2016-Apr-29 23:33N 42°58' E 010°19'8 8.3
2016-Apr-29 22:33N 42°50' E 010°21'1 1.4
2016-Apr-29 21:33N 42°49' E 010°20'0 0.0
2016-Apr-29 20:18N 42°49' E 010°20'0 0.0
2016-Apr-29 19:30N 42°49' E 010°20'0 0.0
2016-Apr-29 17:33N 42°49' E 010°20'0 0.0
2016-Apr-29 16:27N 42°49' E 010°20'0 0.0
2016-Apr-29 15:30N 42°49' E 010°20'0 0.0
2016-Apr-29 14:33N 42°49' E 010°20'0 0.0
2016-Apr-29 13:27N 42°49' E 010°20'0 0.0
2016-Apr-29 12:27N 42°49' E 010°20'0 0.0
2016-Apr-29 11:33N 42°49' E 010°20'0 0.0
2016-Apr-29 10:30N 42°49' E 010°20'0 0.0
2016-Apr-29 06:30N 42°49' E 010°20'2 1.3
2016-Apr-29 04:33N 42°51' E 010°19'1010.0
2016-Apr-29 03:33N 42°53' E 010°06'8 8.3
2016-Apr-29 02:33N 42°45' E 010°01'  
2016-Apr-26 18:06N 43°19' E 007°21'713.1
2016-Apr-26 17:33N 43°26' E 007°20'1313.3
2016-Apr-26 16:33N 43°39' E 007°17'3 2.5
2016-Apr-26 15:33N 43°42' E 007°17'0 0.0
2016-Apr-26 14:33N 43°42' E 007°17'0 0.0
2016-Apr-26 13:27N 43°42' E 007°17'0 0.0
2016-Apr-26 12:33N 43°42' E 007°17'0 0.0
2016-Apr-26 11:33N 43°42' E 007°17'0 0.0
2016-Apr-26 10:27N 43°42' E 007°17'0 0.0
2016-Apr-26 09:33N 43°42' E 007°17'0 0.0
2016-Apr-26 08:33N 43°42' E 007°17'0 0.0
2016-Apr-26 07:27N 43°42' E 007°17'0 0.0
2016-Apr-26 06:33N 43°42' E 007°17'0 0.0
2016-Apr-26 04:27N 43°42' E 007°17'1 0.8
2016-Apr-26 03:33N 43°41' E 007°17'1212.5
2016-Apr-26 02:33N 43°30' E 007°09'9710.5
2016-Apr-25 17:22N 42°55' E 005°05'  
2016-Apr-23 06:34N 43°16' E 004°13'2511.0
2016-Apr-23 04:19N 43°11' E 004°47'911.5
2016-Apr-23 03:33N 43°08' E 004°58'  
Track history (hours):
 
Tides and Currents Weather Stations Pressure Air Temp Water Temp Dewpoint Dewpoint Depression Visibility Wind Speed Wind Dir Waves Ship Positions

Berlin

Last reported at 2016-May-03 03:18 UTC. Time now 2016-May-03 06:52 UTC.
Position N 42°45' E 008°57'.

Length 140 m; draft 5.1 m.

Type: Passenger vessel. MMSI: 248277000.

Date/timePositionNaut miles runAvg speedWind from/ knotsBaromVisibWave heightAir tempDewpointWater temp
2016-May-03 03:18N 42°45' E 008°57'18 9.4
2016-May-03 01:23N 42°59' E 009°12'8 9.6
2016-May-03 00:33N 43°05' E 009°20'8 8.1
2016-May-02 23:33N 43°02' E 009°31'9 9.3
2016-May-02 22:32N 42°53' E 009°33'15 0.8
2016-May-02 02:30N 43°06' E 009°22'1211.0
2016-May-02 01:25N 43°09' E 009°07'1011.3
2016-May-02 00:33N 43°12' E 008°54'5911.5
2016-May-01 19:26N 43°34' E 007°39'1010.9
2016-May-01 18:34N 43°37' E 007°27'8 7.5
2016-May-01 17:30N 43°42' E 007°17'0 0.0
2016-May-01 16:30N 43°42' E 007°17'0 0.0
2016-May-01 15:30N 43°42' E 007°17'0 0.0
2016-May-01 14:24N 43°42' E 007°17'0 0.0
2016-May-01 13:30N 43°42' E 007°17'0 0.0
2016-May-01 12:30N 43°42' E 007°17'0 0.0
2016-May-01 11:18N 43°42' E 007°17'0 0.0
2016-May-01 10:24N 43°42' E 007°17'0 0.0
2016-May-01 09:30N 43°42' E 007°17'0 0.0
2016-May-01 08:30N 43°42' E 007°17'0 0.0
2016-May-01 07:24N 43°42' E 007°17'0 0.0
2016-May-01 06:30N 43°42' E 007°17'0 0.0
2016-May-01 05:31N 43°42' E 007°17'6 6.3
2016-May-01 04:33N 43°38' E 007°24'5310.6
2016-Apr-30 23:34N 43°35' E 008°37'1212.1
2016-Apr-30 22:33N 43°34' E 008°54'1212.4
2016-Apr-30 21:33N 43°33' E 009°11'1312.6
2016-Apr-30 20:34N 43°32' E 009°29'1312.7
2016-Apr-30 19:33N 43°31' E 009°46'1212.1
2016-Apr-30 18:33N 43°31' E 010°03'1010.2
2016-Apr-30 17:33N 43°32' E 010°17'1 1.1
2016-Apr-30 16:29N 43°33' E 010°18'0 0.0
2016-Apr-30 15:32N 43°33' E 010°18'0 0.0
2016-Apr-30 14:32N 43°33' E 010°18'0 0.0
2016-Apr-30 13:32N 43°33' E 010°18'0 0.0
2016-Apr-30 12:32N 43°33' E 010°18'0 0.0
2016-Apr-30 11:32N 43°33' E 010°18'0 0.0
2016-Apr-30 10:32N 43°33' E 010°18'0 0.0
2016-Apr-30 09:29N 43°33' E 010°18'0 0.0
2016-Apr-30 08:32N 43°33' E 010°18'0 0.0
2016-Apr-30 07:32N 43°33' E 010°18'0 0.0
2016-Apr-30 06:32N 43°33' E 010°18'0 0.2
2016-Apr-30 05:33N 43°33' E 010°18'5 5.3
2016-Apr-30 04:33N 43°29' E 010°13'9 8.9
2016-Apr-30 03:33N 43°20' E 010°13'8 7.9
2016-Apr-30 02:33N 43°12' E 010°15'8 8.0
2016-Apr-30 01:33N 43°05' E 010°19'6 5.6
2016-Apr-30 00:33N 43°03' E 010°11'7 7.4
2016-Apr-29 23:33N 42°58' E 010°19'8 8.3
2016-Apr-29 22:33N 42°50' E 010°21'1 1.4
2016-Apr-29 21:33N 42°49' E 010°20'0 0.0
2016-Apr-29 20:18N 42°49' E 010°20'0 0.0
2016-Apr-29 19:30N 42°49' E 010°20'0 0.0
2016-Apr-29 17:33N 42°49' E 010°20'0 0.0
2016-Apr-29 16:27N 42°49' E 010°20'0 0.0
2016-Apr-29 15:30N 42°49' E 010°20'0 0.0
2016-Apr-29 14:33N 42°49' E 010°20'0 0.0
2016-Apr-29 13:27N 42°49' E 010°20'0 0.0
2016-Apr-29 12:27N 42°49' E 010°20'0 0.0
2016-Apr-29 11:33N 42°49' E 010°20'0 0.0
2016-Apr-29 10:30N 42°49' E 010°20'0 0.0
2016-Apr-29 06:30N 42°49' E 010°20'2 1.3
2016-Apr-29 04:33N 42°51' E 010°19'1010.0
2016-Apr-29 03:33N 42°53' E 010°06'8 8.3
2016-Apr-29 02:33N 42°45' E 010°01'  
2016-Apr-26 18:06N 43°19' E 007°21'713.1
2016-Apr-26 17:33N 43°26' E 007°20'1313.3
2016-Apr-26 16:33N 43°39' E 007°17'3 2.5
2016-Apr-26 15:33N 43°42' E 007°17'0 0.0
2016-Apr-26 14:33N 43°42' E 007°17'0 0.0
2016-Apr-26 13:27N 43°42' E 007°17'0 0.0
2016-Apr-26 12:33N 43°42' E 007°17'0 0.0
2016-Apr-26 11:33N 43°42' E 007°17'0 0.0
2016-Apr-26 10:27N 43°42' E 007°17'0 0.0
2016-Apr-26 09:33N 43°42' E 007°17'0 0.0
2016-Apr-26 08:33N 43°42' E 007°17'0 0.0
2016-Apr-26 07:27N 43°42' E 007°17'0 0.0
2016-Apr-26 06:33N 43°42' E 007°17'0 0.0
2016-Apr-26 04:27N 43°42' E 007°17'1 0.8
2016-Apr-26 03:33N 43°41' E 007°17'1212.5
2016-Apr-26 02:33N 43°30' E 007°09'9710.5
2016-Apr-25 17:22N 42°55' E 005°05'  
2016-Apr-23 06:34N 43°16' E 004°13'2511.0
2016-Apr-23 04:19N 43°11' E 004°47'911.5
2016-Apr-23 03:33N 43°08' E 004°58'  

Dump ship's entire track history